Time;durP1;ratioP1;P1;durP2;ratioP2;P2;SDS_P1;SDS_P2;PMS_P1;PMS_P2;Temp;Humidity;BMP_temperature;BMP_pressure;BME280_temperature;BME280_humidity;BME280_pressure;Samples;Min_cycle;Max_cycle;Signal;HPM_P1;HPM_P2
2023/09/19 00:00:49;;;;;;;3.83;2.20;;;;;;;20.87;100.00;99637.97;5015959;28;20087;-75
2023/09/19 00:03:24;;;;;;;5.15;2.08;;;;;;;20.80;100.00;99635.84;5015081;28;20030;-73
2023/09/19 00:05:50;;;;;;;4.93;2.33;;;;;;;20.74;100.00;99641.84;5015296;28;20466;-74
2023/09/19 00:08:15;;;;;;;6.18;2.65;;;;;;;20.71;100.00;99648.81;5014618;28;20038;-75
2023/09/19 00:10:46;;;;;;;4.95;2.05;;;;;;;20.70;100.00;99652.25;5016037;28;20022;-74
2023/09/19 00:13:14;;;;;;;4.97;2.05;;;;;;;20.69;100.00;99647.84;5014818;28;20030;-74
2023/09/19 00:15:48;;;;;;;4.95;2.17;;;;;;;20.68;100.00;99641.25;5016285;28;20627;-76
2023/09/19 00:18:29;;;;;;;2.58;1.52;;;;;;;20.71;100.00;99650.94;5014042;28;20046;-74
2023/09/19 00:21:12;;;;;;;3.53;2.03;;;;;;;20.71;100.00;99648.03;5015796;28;20030;-76
2023/09/19 00:23:40;;;;;;;5.15;1.67;;;;;;;20.63;100.00;99650.16;5015727;28;20034;-77
2023/09/19 00:26:25;;;;;;;1.70;1.50;;;;;;;20.56;100.00;99650.91;5015366;28;20038;-74
2023/09/19 00:28:57;;;;;;;8.68;1.85;;;;;;;20.55;100.00;99650.13;5015862;28;20033;-74
2023/09/19 00:31:43;;;;;;;3.00;1.83;;;;;;;20.57;100.00;99656.13;5015330;28;20049;-73
2023/09/19 00:34:10;;;;;;;4.18;1.50;;;;;;;20.57;100.00;99655.38;5014313;28;20065;-74
2023/09/19 00:36:43;;;;;;;6.28;2.33;;;;;;;20.56;100.00;99660.41;5015704;28;20026;-75
2023/09/19 00:39:15;;;;;;;6.53;1.90;;;;;;;20.58;100.00;99656.91;5014919;28;20049;-74
2023/09/19 00:41:41;;;;;;;4.32;1.35;;;;;;;20.53;100.00;99644.13;5027793;28;20056;-74
2023/09/19 00:44:10;;;;;;;12.48;2.45;;;;;;;20.55;100.00;99644.31;5034461;28;20105;-75
2023/09/19 00:46:36;;;;;;;3.58;1.65;;;;;;;20.53;100.00;99649.94;5033945;28;20032;-76
2023/09/19 00:49:07;;;;;;;2.33;1.27;;;;;;;20.43;100.00;99630.78;5033519;28;20107;-74
2023/09/19 00:51:54;;;;;;;2.03;1.45;;;;;;;20.56;100.00;99637.16;5032687;28;20080;-74
2023/09/19 00:54:21;;;;;;;2.92;1.38;;;;;;;20.57;100.00;99635.03;5033199;28;20021;-74
2023/09/19 00:56:47;;;;;;;2.58;1.35;;;;;;;20.62;100.00;99636.97;5034263;28;20482;-75
2023/09/19 00:59:14;;;;;;;5.55;2.00;;;;;;;20.62;100.00;99631.94;5034128;28;20045;-74
2023/09/19 01:01:41;;;;;;;4.10;1.40;;;;;;;20.63;100.00;99633.50;5035025;28;20025;-74
2023/09/19 01:04:08;;;;;;;3.72;1.50;;;;;;;20.66;100.00;99640.25;5034929;28;20025;-76
2023/09/19 01:06:52;;;;;;;2.25;1.83;;;;;;;20.64;100.00;99632.16;5034913;28;20471;-74
2023/09/19 01:09:20;;;;;;;8.63;1.65;;;;;;;20.58;100.00;99622.84;5034239;28;20101;-75
2023/09/19 01:11:48;;;;;;;4.57;1.38;;;;;;;20.65;100.00;99630.78;5033289;28;20030;-75
2023/09/19 01:14:34;;;;;;;2.50;1.20;;;;;;;20.64;100.00;99632.16;5034564;28;20068;-74
2023/09/19 01:17:13;;;;;;;3.80;1.40;;;;;;;20.64;100.00;99634.28;5033232;28;20383;-77
2023/09/19 01:20:20;;;;;;;4.53;1.42;;;;;;;20.64;100.00;99635.06;5034587;28;20021;-75
2023/09/19 01:23:22;;;;;;;1.85;1.20;;;;;;;20.63;100.00;99639.31;5034509;28;20052;-75
2023/09/19 01:25:58;;;;;;;7.40;1.67;;;;;;;20.57;100.00;99635.03;5034329;28;20379;-74
2023/09/19 01:29:19;;;;;;;5.53;1.80;;;;;;;20.54;100.00;99634.09;5034182;28;20109;-74
2023/09/19 01:31:47;;;;;;;10.73;2.45;;;;;;;20.51;100.00;99646.84;5022628;28;20041;-75
2023/09/19 01:34:12;;;;;;;8.73;2.63;;;;;;;20.45;100.00;99639.69;5034325;28;20056;-74
2023/09/19 01:36:38;;;;;;;10.02;2.40;;;;;;;20.37;100.00;99642.56;5034102;28;20037;-75
2023/09/19 01:39:10;;;;;;;7.95;1.95;;;;;;;20.28;100.00;99641.00;5032902;28;20041;-74
2023/09/19 01:41:54;;;;;;;5.07;2.10;;;;;;;20.22;100.00;99648.34;5017270;28;20033;-74
2023/09/19 01:44:30;;;;;;;5.03;1.98;;;;;;;20.09;100.00;99639.81;5032998;28;20034;-73
2023/09/19 01:46:58;;;;;;;6.75;1.63;;;;;;;19.97;100.00;99650.97;5033979;28;20053;-73
2023/09/19 01:50:03;;;;;;;3.30;1.48;;;;;;;19.87;100.00;99650.72;5032743;28;20094;-75
2023/09/19 01:52:33;;;;;;;5.78;1.70;;;;;;;19.81;100.00;99655.91;5033869;28;20030;-74
2023/09/19 01:55:07;;;;;;;4.97;1.50;;;;;;;19.75;100.00;99652.44;5032863;28;20026;-75
2023/09/19 01:57:41;;;;;;;3.63;1.52;;;;;;;19.72;100.00;99664.38;5032948;28;20049;-74
2023/09/19 02:00:11;;;;;;;2.13;1.40;;;;;;;19.71;100.00;99657.03;5032797;28;20081;-74
2023/09/19 02:02:38;;;;;;;4.00;1.75;;;;;;;19.70;100.00;99656.28;5034006;28;20037;-74
2023/09/19 02:05:06;;;;;;;4.97;1.67;;;;;;;19.70;100.00;99656.28;5032818;28;20049;-76
2023/09/19 02:07:32;;;;;;;6.13;1.58;;;;;;;19.73;100.00;99657.22;5032013;28;20159;-74
2023/09/19 02:10:00;;;;;;;7.03;1.60;;;;;;;19.71;100.00;99662.84;5033735;28;20053;-74
2023/09/19 02:12:27;;;;;;;2.63;1.60;;;;;;;19.69;100.00;99662.63;5033725;28;20021;-74
2023/09/19 02:14:52;;;;;;;5.22;1.98;;;;;;;19.62;100.00;99664.13;5034087;28;20037;-75
2023/09/19 02:17:19;;;;;;;4.65;1.63;;;;;;;19.66;100.00;99660.88;5037651;28;20029;-75
2023/09/19 02:19:46;;;;;;;3.47;1.52;;;;;;;19.67;100.00;99659.53;5036224;28;20093;-77
2023/09/19 02:22:14;;;;;;;6.10;1.88;;;;;;;19.67;100.00;99665.31;5036049;28;20592;-75
2023/09/19 02:24:40;;;;;;;2.53;1.25;;;;;;;19.68;100.00;99663.97;5033584;28;20033;-76
2023/09/19 02:27:08;;;;;;;2.75;1.52;;;;;;;19.73;100.00;99677.53;5033180;28;20052;-75
2023/09/19 02:29:34;;;;;;;7.60;1.70;;;;;;;19.75;100.00;99680.66;5033675;28;20033;-74
2023/09/19 02:32:01;;;;;;;6.28;1.52;;;;;;;19.72;100.00;99676.75;5033434;28;20029;-74
2023/09/19 02:34:27;;;;;;;2.85;2.17;;;;;;;19.74;100.00;99681.97;5032140;28;20251;-75
2023/09/19 02:36:55;;;;;;;8.50;1.58;;;;;;;19.72;100.00;99670.16;5032004;28;20034;-74
2023/09/19 02:39:23;;;;;;;3.15;1.60;;;;;;;19.74;100.00;99667.50;5033158;28;20125;-75
2023/09/19 02:41:51;;;;;;;4.63;1.50;;;;;;;19.78;100.00;99656.28;5033230;28;20037;-76
2023/09/19 02:44:16;;;;;;;8.57;2.13;;;;;;;19.79;100.00;99664.44;5033228;28;20029;-76
2023/09/19 02:46:42;;;;;;;3.17;1.60;;;;;;;19.76;100.00;99644.47;5033320;28;20124;-75
2023/09/19 02:49:09;;;;;;;4.68;1.83;;;;;;;19.78;100.00;99636.00;5033529;28;20030;-74
2023/09/19 02:51:37;;;;;;;2.80;1.48;;;;;;;19.78;100.00;99641.78;5033155;28;20019;-75
2023/09/19 02:54:05;;;;;;;6.25;1.55;;;;;;;19.77;100.00;99637.34;5033219;28;20026;-74
2023/09/19 02:56:32;;;;;;;10.23;2.03;;;;;;;19.78;100.00;99627.28;5033593;28;20158;-75
2023/09/19 02:58:57;;;;;;;2.55;1.73;;;;;;;19.81;100.00;99623.22;5032640;28;20166;-74
2023/09/19 03:01:24;;;;;;;2.85;2.05;;;;;;;19.81;100.00;99626.91;5033069;28;20045;-74
2023/09/19 03:03:51;;;;;;;6.03;2.03;;;;;;;19.78;100.00;99627.28;5034666;28;20025;-74
2023/09/19 03:06:19;;;;;;;4.05;2.22;;;;;;;19.76;100.00;99629.97;5037087;28;20037;-74
2023/09/19 03:08:46;;;;;;;5.72;2.13;;;;;;;19.75;100.00;99637.94;5037376;28;20040;-75
2023/09/19 03:11:27;;;;;;;4.78;1.88;;;;;;;19.69;100.00;99639.44;5037284;28;20025;-75
2023/09/19 03:14:07;;;;;;;4.43;1.90;;;;;;;19.63;100.00;99639.59;5037092;28;20079;-73
2023/09/19 03:16:33;;;;;;;4.57;1.60;;;;;;;19.57;100.00;99630.28;5037095;28;20128;-74
2023/09/19 03:19:00;;;;;;;3.60;2.00;;;;;;;19.52;100.00;99642.81;5036741;28;20551;-74
2023/09/19 03:21:26;;;;;;;8.10;2.78;;;;;;;19.47;100.00;99643.75;5036641;28;20045;-74
2023/09/19 03:23:53;;;;;;;4.40;2.10;;;;;;;19.44;100.00;99639.13;5035372;28;20037;-75
2023/09/19 03:26:27;;;;;;;4.65;2.03;;;;;;;19.44;100.00;99645.69;5036993;28;20352;-75
2023/09/19 03:28:53;;;;;;;3.08;2.13;;;;;;;19.43;100.00;99638.34;5036862;28;20159;-75
2023/09/19 03:31:20;;;;;;;7.38;2.30;;;;;;;19.38;100.00;99638.50;5035321;28;20037;-73
2023/09/19 03:33:47;;;;;;;6.50;2.22;;;;;;;19.45;100.00;99647.25;5037020;28;20061;-76
2023/09/19 03:36:15;;;;;;;6.63;3.25;;;;;;;19.44;100.00;99656.50;5036920;28;20029;-74
2023/09/19 03:38:40;;;;;;;5.43;2.42;;;;;;;19.42;100.00;99662.88;5036790;28;20072;-73
2023/09/19 03:41:06;;;;;;;7.40;2.13;;;;;;;19.41;100.00;99655.50;5036716;28;20489;-74
2023/09/19 03:43:33;;;;;;;6.22;2.28;;;;;;;19.40;100.00;99662.69;5036522;28;20033;-75
2023/09/19 03:46:05;;;;;;;4.90;2.78;;;;;;;19.31;100.00;99639.25;5018614;28;20025;-74
2023/09/19 03:48:30;;;;;;;7.10;2.50;;;;;;;19.39;100.00;99654.56;5036707;28;20025;-75
2023/09/19 03:50:57;;;;;;;3.67;2.05;;;;;;;19.34;100.00;99656.25;5035324;28;20425;-75
2023/09/19 03:53:23;;;;;;;5.05;2.50;;;;;;;19.35;100.00;99657.03;5036587;28;20033;-74
2023/09/19 03:55:49;;;;;;;7.45;2.25;;;;;;;19.34;100.00;99656.25;5036466;28;20041;-75
2023/09/19 03:58:20;;;;;;;10.85;2.35;;;;;;;19.32;100.00;99656.03;5037042;28;20033;-74
2023/09/19 04:00:50;;;;;;;4.40;2.22;;;;;;;19.29;100.00;99657.19;5035890;28;20486;-74
2023/09/19 04:03:20;;;;;;;6.53;2.03;;;;;;;19.25;100.00;99659.69;5036522;28;20029;-74
2023/09/19 04:05:47;;;;;;;4.78;2.05;;;;;;;19.22;100.00;99668.72;5036484;28;20532;-74
2023/09/19 04:08:14;;;;;;;3.38;1.98;;;;;;;19.23;100.00;99661.59;5035123;28;20065;-76
2023/09/19 04:10:45;;;;;;;2.85;2.03;;;;;;;19.22;100.00;99657.13;5034739;28;20443;-74
2023/09/19 04:13:13;;;;;;;8.48;2.42;;;;;;;19.24;100.00;99654.44;5034859;28;20064;-76
2023/09/19 04:15:40;;;;;;;7.45;2.47;;;;;;;19.22;100.00;99649.22;5034774;28;20036;-75
2023/09/19 04:18:07;;;;;;;4.45;1.80;;;;;;;19.25;100.00;99656.00;5036174;28;20351;-75
2023/09/19 04:20:33;;;;;;;4.30;1.73;;;;;;;19.25;100.00;99653.91;5035602;28;20482;-74
2023/09/19 04:22:59;;;;;;;4.85;1.98;;;;;;;19.29;100.00;99660.09;5034393;28;20042;-75
2023/09/19 04:25:26;;;;;;;6.60;2.78;;;;;;;19.29;100.00;99651.41;5035621;28;20112;-76
2023/09/19 04:27:52;;;;;;;9.88;2.15;;;;;;;19.31;100.00;99647.94;5035645;28;20032;-75
2023/09/19 04:30:17;;;;;;;6.38;2.55;;;;;;;19.32;100.00;99658.16;5034640;28;20034;-75
2023/09/19 04:32:50;;;;;;;5.10;2.90;;;;;;;19.23;100.00;99639.19;5034204;28;20036;-75
2023/09/19 04:35:18;;;;;;;12.43;2.92;;;;;;;19.26;100.00;99652.56;5035328;28;20021;-75
2023/09/19 04:37:50;;;;;;;4.97;2.03;;;;;;;19.30;100.00;99655.84;5035125;28;20025;-76
2023/09/19 04:40:17;;;;;;;6.05;2.20;;;;;;;19.16;100.00;99642.84;5034030;28;20168;-75
2023/09/19 04:42:45;;;;;;;6.95;2.10;;;;;;;19.29;100.00;99668.78;5035168;28;20029;-76
2023/09/19 04:45:12;;;;;;;4.85;2.05;;;;;;;19.26;100.00;99663.38;5035286;28;20109;-75
2023/09/19 04:47:39;;;;;;;4.28;2.40;;;;;;;19.26;100.00;99664.16;5015516;28;20041;-77
2023/09/19 04:50:11;;;;;;;5.38;2.22;;;;;;;19.26;100.00;99672.06;5014351;28;20042;-78
2023/09/19 04:52:42;;;;;;;4.05;2.10;;;;;;;19.26;100.00;99672.84;5015509;28;20129;-78
2023/09/19 04:55:16;;;;;;;4.82;1.98;;;;;;;19.24;100.00;99681.31;5015614;28;20525;-77
2023/09/19 04:57:44;;;;;;;4.32;1.85;;;;;;;19.22;100.00;99680.31;5014583;28;20036;-76
2023/09/19 05:00:14;;;;;;;4.03;2.22;;;;;;;19.21;100.00;99678.78;5015542;28;20085;-76
2023/09/19 05:02:51;;;;;;;4.33;2.30;;;;;;;19.20;100.00;99689.59;5014356;28;20040;-76
2023/09/19 05:05:18;;;;;;;2.72;1.45;;;;;;;19.19;100.00;99675.66;5015592;28;20284;-73
2023/09/19 05:07:46;;;;;;;5.43;1.70;;;;;;;19.18;100.00;99674.88;5015686;28;20117;-75
2023/09/19 05:10:14;;;;;;;6.43;2.17;;;;;;;19.18;100.00;99685.69;5016238;28;20033;-73
2023/09/19 05:12:40;;;;;;;6.68;2.17;;;;;;;19.16;100.00;99682.59;5017586;28;20033;-73
2023/09/19 05:15:07;;;;;;;5.07;1.92;;;;;;;19.17;100.00;99684.91;5033815;28;20037;-75
2023/09/19 05:17:39;;;;;;;5.40;2.13;;;;;;;19.16;100.00;99676.81;5034409;28;20034;-76
2023/09/19 05:20:18;;;;;;;6.68;2.22;;;;;;;19.21;100.00;99690.38;5034697;28;20030;-75
2023/09/19 05:22:50;;;;;;;9.35;3.08;;;;;;;19.23;100.00;99685.53;5032846;28;20057;-75
2023/09/19 05:25:29;;;;;;;5.88;2.30;;;;;;;19.30;100.00;99695.66;5034295;28;20033;-75
2023/09/19 05:28:11;;;;;;;6.47;1.88;;;;;;;19.31;100.00;99692.19;5034737;28;20060;-75
2023/09/19 05:30:38;;;;;;;5.05;2.25;;;;;;;19.42;100.00;99697.66;5034968;28;20021;-77
2023/09/19 05:33:05;;;;;;;6.45;2.17;;;;;;;19.50;100.00;99712.19;5034805;28;20105;-75
2023/09/19 05:35:31;;;;;;;5.90;2.65;;;;;;;19.54;100.00;99704.69;5033360;28;20037;-76
2023/09/19 05:37:58;;;;;;;4.88;2.55;;;;;;;19.53;100.00;99702.34;5033199;28;20033;-75
2023/09/19 05:40:24;;;;;;;5.72;1.98;;;;;;;19.55;100.00;99708.38;5034458;28;20116;-74
2023/09/19 05:42:52;;;;;;;6.72;2.50;;;;;;;19.55;100.00;99711.25;5033566;28;20551;-75
2023/09/19 05:45:22;;;;;;;6.35;2.22;;;;;;;19.49;100.00;99714.31;5033943;28;20025;-77
2023/09/19 05:47:55;;;;;;;5.35;2.10;;;;;;;19.54;100.00;99718.41;5034886;28;20029;-75
2023/09/19 05:50:24;;;;;;;3.00;2.20;;;;;;;19.56;100.00;99730.19;5017438;28;20113;-74
2023/09/19 05:52:55;;;;;;;5.30;2.00;;;;;;;19.59;100.00;99731.97;5033228;28;20037;-73
2023/09/19 05:55:25;;;;;;;6.88;1.67;;;;;;;19.67;100.00;99732.78;5033070;28;20033;-82
2023/09/19 05:57:52;;;;;;;4.65;1.88;;;;;;;19.80;100.00;99737.69;5033125;28;20037;-78
2023/09/19 06:00:23;;;;;;;5.07;1.98;;;;;;;20.04;100.00;99745.97;5016307;28;20111;-80
2023/09/19 06:02:52;;;;;;;5.97;1.80;;;;;;;20.41;100.00;99741.63;5034213;28;20173;-80
2023/09/19 06:05:20;;;;;;;5.38;2.25;;;;;;;20.65;100.00;99731.63;5034090;28;20033;-78
2023/09/19 06:07:47;;;;;;;5.45;1.80;;;;;;;20.78;100.00;99725.69;5016547;28;20527;-78
2023/09/19 06:10:20;;;;;;;6.95;2.03;;;;;;;20.84;100.00;99719.72;5032347;28;20029;-80
2023/09/19 06:12:53;;;;;;;5.88;1.92;;;;;;;20.96;100.00;99726.66;5032629;28;20025;-78
2023/09/19 06:15:22;;;;;;;12.45;2.22;;;;;;;21.07;100.00;99735.78;5032867;28;20029;-77
2023/09/19 06:18:04;;;;;;;6.45;2.10;;;;;;;21.02;100.00;99721.44;5032676;28;20045;-76
2023/09/19 06:20:31;;;;;;;5.78;1.95;;;;;;;21.14;100.00;99737.91;5032562;28;20112;-78
2023/09/19 06:22:57;;;;;;;6.70;2.05;;;;;;;21.12;100.00;99740.63;5032393;28;20517;-78
2023/09/19 06:25:25;;;;;;;8.45;3.83;;;;;;;21.10;100.00;99733.84;5031287;28;20031;-78
2023/09/19 06:27:55;;;;;;;5.53;2.28;;;;;;;21.07;100.00;99727.06;5037318;28;20087;-79
2023/09/19 06:30:23;;;;;;;7.03;2.25;;;;;;;20.99;100.00;99719.72;5039035;28;20018;-80
2023/09/19 06:33:00;;;;;;;4.18;2.50;;;;;;;21.14;100.00;99742.94;5037420;28;20033;-80
2023/09/19 06:35:27;;;;;;;6.70;2.60;;;;;;;21.11;100.00;99747.00;5033497;28;20041;-78
2023/09/19 06:37:53;;;;;;;7.30;2.05;;;;;;;21.08;100.00;99751.09;5033534;28;20025;-78
2023/09/19 06:40:20;;;;;;;7.00;2.63;;;;;;;21.07;100.00;99743.72;5033281;28;20100;-79
2023/09/19 06:42:49;;;;;;;5.07;2.13;;;;;;;21.11;100.00;99747.00;5032797;28;20112;-77
2023/09/19 06:45:18;;;;;;;8.15;1.77;;;;;;;21.16;100.00;99758.44;5032629;28;20516;-78
2023/09/19 06:47:50;;;;;;;2.92;1.60;;;;;;;21.24;100.00;99759.22;5031800;28;20104;-77
2023/09/19 06:50:19;;;;;;;3.72;1.92;;;;;;;21.31;100.00;99757.69;5032229;28;20028;-78
2023/09/19 06:52:47;;;;;;;3.08;1.52;;;;;;;21.36;100.00;99761.75;5049047;28;20052;-80
2023/09/19 06:55:16;;;;;;;5.05;1.70;;;;;;;21.43;100.00;99772.59;5033590;28;20029;-79
2023/09/19 06:57:43;;;;;;;4.05;1.80;;;;;;;21.54;100.00;99773.00;5033544;28;20029;-77
2023/09/19 07:00:21;;;;;;;4.22;1.77;;;;;;;21.67;100.00;99757.47;5032360;28;20117;-79
2023/09/19 07:03:00;;;;;;;4.05;1.70;;;;;;;22.02;100.00;99768.06;5033583;28;20033;-78
2023/09/19 07:05:28;;;;;;;3.58;1.60;;;;;;;22.42;100.00;99771.00;5048707;28;20438;-78
2023/09/19 07:07:59;;;;;;;5.80;2.10;;;;;;;22.79;100.00;99769.25;5032157;28;20036;-78
2023/09/19 07:10:27;;;;;;;2.72;1.65;;;;;;;23.45;100.00;99764.13;5033650;28;20351;-78
2023/09/19 07:13:04;;;;;;;5.45;1.30;;;;;;;24.18;100.00;99774.88;5016157;28;20030;-78
2023/09/19 07:15:39;;;;;;;5.30;2.10;;;;;;;24.68;100.00;99774.66;5033775;28;20032;-78
2023/09/19 07:18:06;;;;;;;3.22;1.80;;;;;;;24.78;100.00;99766.72;5031854;28;20032;-79
2023/09/19 07:20:34;;;;;;;9.52;2.03;;;;;;;24.73;100.00;99766.97;5033163;28;20117;-78
2023/09/19 07:23:01;;;;;;;5.65;1.80;;;;;;;24.83;100.00;99762.75;5032244;28;20091;-78
2023/09/19 07:25:30;;;;;;;2.47;1.45;;;;;;;25.03;100.00;99772.41;5033359;28;20105;-77
2023/09/19 07:28:00;;;;;;;4.72;1.70;;;;;;;25.12;100.00;99765.81;5032079;28;20068;-78
2023/09/19 07:30:41;;;;;;;5.63;1.73;;;;;;;25.04;100.00;99768.84;5032109;28;20033;-77
2023/09/19 07:33:07;;;;;;;1.85;1.20;;;;;;;24.73;100.00;99761.91;5030904;28;20068;-80
2023/09/19 07:35:33;;;;;;;2.83;1.50;;;;;;;24.41;100.00;99779.66;5032009;28;20029;-79
2023/09/19 07:38:01;;;;;;;1.60;1.17;;;;;;;24.00;100.00;99766.72;5030903;28;20033;-80
2023/09/19 07:40:28;;;;;;;6.07;1.70;;;;;;;23.85;100.00;99775.66;5032012;28;20021;-79
2023/09/19 07:43:04;;;;;;;5.10;1.75;;;;;;;23.68;100.00;99776.38;5031926;28;20350;-79
2023/09/19 07:45:31;;;;;;;7.78;1.70;;;;;;;23.62;100.00;99779.53;5032011;28;20053;-79
2023/09/19 07:47:57;;;;;;;5.63;1.63;;;;;;;23.66;100.00;99782.81;5047374;28;20416;-78
2023/09/19 07:50:23;;;;;;;6.55;1.85;;;;;;;23.62;100.00;99776.63;5050362;28;20025;-77
2023/09/19 07:52:55;;;;;;;5.13;1.52;;;;;;;23.86;100.00;99780.09;5034162;28;20030;-78
2023/09/19 07:55:25;;;;;;;3.03;1.55;;;;;;;23.98;100.00;99793.59;5051636;28;20033;-78
2023/09/19 07:57:57;;;;;;;2.72;1.35;;;;;;;24.04;100.00;99802.09;5035816;28;20057;-79
2023/09/19 08:00:23;;;;;;;;;;;;;;;24.03;100.00;99807.16;5036897;28;20037;-79
2023/09/19 08:02:51;;;;;;;3.92;1.50;;;;;;;23.99;100.00;99806.03;5036801;28;19971;-81
2023/09/19 08:05:18;;;;;;;3.88;1.58;;;;;;;23.96;100.00;99807.22;5035418;28;20033;-78
2023/09/19 08:07:48;;;;;;;2.72;1.13;;;;;;;23.91;100.00;99814.09;5036873;28;20042;-78
2023/09/19 08:10:16;;;;;;;4.38;1.55;;;;;;;23.86;100.00;99812.19;5035093;28;20029;-76
2023/09/19 08:12:46;;;;;;;3.30;1.52;;;;;;;23.76;100.00;99806.25;5036308;28;20099;-78
2023/09/19 08:15:19;;;;;;;2.85;1.45;;;;;;;23.79;100.00;99822.59;5034900;28;20378;-80
2023/09/19 08:17:45;;;;;;;4.07;1.13;;;;;;;23.65;100.00;99827.97;5034975;28;20375;-79
2023/09/19 08:20:22;;;;;;;2.47;1.70;;;;;;;23.54;100.00;99834.25;5035067;28;20029;-76
2023/09/19 08:22:58;;;;;;;3.85;1.65;;;;;;;23.45;100.00;99832.00;5034733;28;20110;-78
2023/09/19 08:25:29;;;;;;;3.03;1.65;;;;;;;23.31;100.00;99839.47;5036437;28;20036;-77
2023/09/19 08:27:58;;;;;;;2.30;1.45;;;;;;;23.24;100.00;99843.22;5034827;28;20056;-79
2023/09/19 08:30:30;;;;;;;1.85;1.48;;;;;;;23.14;100.00;99839.41;5034884;28;20033;-81
2023/09/19 08:33:07;;;;;;;3.10;1.40;;;;;;;23.12;100.00;99839.22;5036033;28;20028;-76
2023/09/19 08:35:33;;;;;;;3.97;1.73;;;;;;;23.13;100.00;99843.69;5035599;28;20025;-76
2023/09/19 08:38:07;;;;;;;2.92;1.50;;;;;;;23.20;100.00;99848.72;5034694;28;20456;-78
2023/09/19 08:40:42;;;;;;;1.85;1.55;;;;;;;23.23;100.00;99842.44;5035712;28;20036;-77
2023/09/19 08:43:08;;;;;;;2.53;1.30;;;;;;;23.38;100.00;99848.19;5034451;28;20072;-78
2023/09/19 08:45:36;;;;;;;4.05;1.27;;;;;;;23.38;100.00;99851.09;5035411;28;20024;-76
2023/09/19 08:48:26;;;;;;;2.30;1.55;;;;;;;23.37;100.00;99860.44;5034707;28;20044;-79
2023/09/19 08:51:03;;;;;;;4.38;1.60;;;;;;;23.30;100.00;99861.28;5050986;28;20029;-77
2023/09/19 08:53:54;;;;;;;4.10;1.35;;;;;;;23.27;100.00;99853.69;5050812;28;20021;-76
2023/09/19 08:56:29;;;;;;;2.88;1.52;;;;;;;23.24;100.00;99863.66;5035439;28;20112;-79
2023/09/19 08:59:01;;;;;;;5.40;2.42;;;;;;;23.16;100.00;99860.00;5050677;28;20117;-76
2023/09/19 09:01:28;;;;;;;2.58;1.42;;;;;;;23.03;100.00;99866.09;5050046;28;20036;-80
2023/09/19 09:04:12;;;;;;;2.45;1.27;;;;;;;22.89;100.00;99872.19;5050800;28;20040;-78
2023/09/19 09:06:44;;;;;;;4.65;1.60;;;;;;;22.76;100.00;99875.34;5035396;28;20025;-80
2023/09/19 09:09:24;;;;;;;4.60;1.40;;;;;;;22.67;100.00;99873.03;5035591;28;20053;-77
2023/09/19 09:11:56;;;;;;;1.98;1.30;;;;;;;22.58;100.00;99881.63;5034268;28;20064;-78
2023/09/19 09:14:24;;;;;;;2.97;1.50;;;;;;;22.61;100.00;99884.16;5034096;28;20021;-79
2023/09/19 09:16:50;;;;;;;2.25;1.30;;;;;;;22.66;100.00;99882.38;5033772;28;20386;-79
2023/09/19 09:19:24;;;;;;;2.35;1.33;;;;;;;22.76;100.00;99898.66;5033605;28;20029;-78
2023/09/19 09:22:11;;;;;;;3.65;1.85;;;;;;;22.84;100.00;99892.78;5035065;28;20044;-76
2023/09/19 09:24:39;;;;;;;3.58;1.98;;;;;;;22.88;100.00;99893.97;5050649;28;20377;-77
2023/09/19 09:27:10;;;;;;;4.57;1.77;;;;;;;22.92;100.00;99888.50;5033720;28;20060;-82
2023/09/19 09:29:44;;;;;;;;;;;;;;;22.93;100.00;99898.00;5034085;28;20060;-77
2023/09/19 09:32:36;;;;;;;2.47;1.50;;;;;;;22.94;100.00;99902.50;5034894;28;19955;-75
2023/09/19 09:35:21;;;;;;;3.03;1.70;;;;;;;23.05;100.00;99901.28;5034380;28;20025;-78
2023/09/19 09:37:48;;;;;;;2.03;1.30;;;;;;;23.18;100.00;99895.94;5034785;28;20075;-78
2023/09/19 09:42:40;;;;;;;5.00;1.60;;;;;;;23.65;100.00;99903.84;5035136;28;20116;-77
2023/09/19 09:45:28;;;;;;;1.85;1.52;;;;;;;23.89;100.00;99905.19;5033795;28;20078;-79
2023/09/19 09:47:56;;;;;;;3.40;1.52;;;;;;;23.98;100.00;99907.44;5034446;28;20477;-75
2023/09/19 09:50:50;;;;;;;4.05;1.30;;;;;;;24.08;100.00;99911.25;5033072;28;20075;-78
2023/09/19 09:53:32;;;;;;;2.63;1.45;;;;;;;24.17;100.00;99907.66;5033525;28;20025;-79
2023/09/19 09:56:00;;;;;;;1.30;1.20;;;;;;;24.25;100.00;99910.50;5032928;28;20087;-79
2023/09/19 09:58:35;;;;;;;1.58;1.48;;;;;;;24.38;100.00;99918.97;5034218;28;20025;-77
2023/09/19 10:01:08;;;;;;;3.58;1.40;;;;;;;24.54;100.00;99920.31;5033873;28;20038;-77
2023/09/19 10:03:49;;;;;;;2.10;1.33;;;;;;;24.69;100.00;99918.63;5033125;28;20030;-80
2023/09/19 10:09:19;;;;;;;2.08;1.40;;;;;;;24.79;100.00;99922.41;5034030;28;20045;-78
2023/09/19 10:11:54;;;;;;;3.58;1.58;;;;;;;24.70;100.00;99940.59;5033666;28;20127;-77
2023/09/19 10:14:23;;;;;;;2.95;1.52;;;;;;;24.56;100.00;99929.28;5033955;28;20033;-77
2023/09/19 10:16:49;;;;;;;1.10;1.00;;;;;;;24.53;100.00;99926.78;5033189;28;20030;-75
2023/09/19 10:19:30;;;;;;;3.00;1.58;;;;;;;24.50;100.00;99942.59;5032646;28;20033;-77
2023/09/19 10:21:57;;;;;;;1.48;1.00;;;;;;;24.52;100.00;99934.00;5033749;28;20033;-78
2023/09/19 10:24:24;;;;;;;4.03;1.90;;;;;;;24.58;100.00;99926.53;5032593;28;20116;-78
2023/09/19 10:26:51;;;;;;;7.18;1.98;;;;;;;24.64;100.00;99935.03;5034006;28;20025;-78
2023/09/19 10:29:26;;;;;;;2.65;1.38;;;;;;;24.49;100.00;99946.91;5032697;28;20033;-77
2023/09/19 10:31:53;;;;;;;2.75;1.20;;;;;;;24.27;100.00;99942.81;5032112;28;20056;-79
2023/09/19 10:34:28;;;;;;;4.15;1.50;;;;;;;24.08;100.00;99940.44;5032197;28;20030;-80
2023/09/19 10:36:53;;;;;;;2.63;1.42;;;;;;;24.02;100.00;99944.97;5049092;28;20029;-80
2023/09/19 10:39:19;;;;;;;3.17;1.45;;;;;;;24.01;100.00;99952.16;5032318;28;20385;-81
2023/09/19 10:41:53;;;;;;;3.25;1.40;;;;;;;23.98;100.00;99947.53;5033457;28;20087;-82
2023/09/19 10:44:28;;;;;;;1.90;1.50;;;;;;;23.98;100.00;99962.13;5035053;28;20373;-82
2023/09/19 10:46:55;;;;;;;1.27;1.00;;;;;;;24.00;100.00;99959.41;5034595;28;20017;-81
2023/09/19 10:49:31;;;;;;;6.10;1.25;;;;;;;23.99;100.00;99960.78;5051504;28;20034;-83
2023/09/19 10:51:59;;;;;;;1.67;1.17;;;;;;;23.94;100.00;99962.56;5014382;28;20026;-80
2023/09/19 10:54:28;;;;;;;2.42;1.17;;;;;;;23.93;100.00;99963.91;4996828;28;20096;-81
2023/09/19 10:56:58;;;;;;;3.03;1.38;;;;;;;23.93;100.00;99948.53;5013211;28;20054;-80
2023/09/19 10:59:24;;;;;;;2.03;1.23;;;;;;;23.85;100.00;99959.53;5014378;28;20041;-79
2023/09/19 11:02:17;;;;;;;2.15;1.00;;;;;;;23.77;100.00;99959.56;5019110;28;20079;-80
2023/09/19 11:04:45;;;;;;;1.92;1.10;;;;;;;23.75;100.00;99959.41;5025682;28;20030;-81
2023/09/19 11:07:15;;;;;;;1.33;1.10;;;;;;;23.74;100.00;99960.75;5015375;28;20114;-79
2023/09/19 11:09:54;;;;;;;2.63;1.30;;;;;;;23.77;100.00;99937.00;5012485;28;20434;-78
2023/09/19 11:12:40;;;;;;;1.92;1.23;;;;;;;23.90;100.00;99959.28;5013869;28;20493;-81
2023/09/19 11:15:10;;;;;;;3.45;1.63;;;;;;;23.87;100.00;99960.47;5014828;28;20022;-85
2023/09/19 11:17:47;;;;;;;4.00;1.30;;;;;;;23.82;100.00;99961.47;5013054;28;20038;-82
2023/09/19 11:20:24;;;;;;;3.13;1.00;;;;;;;23.82;100.00;99955.63;5014385;28;20030;-82
2023/09/19 11:23:09;;;;;;;4.72;1.50;;;;;;;23.82;100.00;99958.56;5014007;28;20022;-83
2023/09/19 11:25:54;;;;;;;4.32;1.13;;;;;;;23.88;100.00;99941.59;5018026;28;20037;-78
2023/09/19 11:28:23;;;;;;;3.05;1.58;;;;;;;23.94;100.00;99956.72;5015910;28;20029;-79
2023/09/19 11:31:25;;;;;;;3.75;1.10;;;;;;;24.09;100.00;99949.97;5017367;28;20030;-77
2023/09/19 11:34:31;;;;;;;3.53;1.25;;;;;;;24.20;100.00;99961.16;5017303;28;20084;-80
2023/09/19 11:37:14;;;;;;;2.10;1.05;;;;;;;24.15;100.00;99953.41;5017280;28;20052;-80
2023/09/19 11:39:52;;;;;;;1.33;0.80;;;;;;;24.07;100.00;99950.56;5017150;28;20029;-78
2023/09/19 11:42:45;;;;;;;3.42;1.10;;;;;;;24.11;100.00;99945.06;5001338;28;20049;-79
2023/09/19 11:45:39;;;;;;;1.48;0.77;;;;;;;24.09;100.00;99953.69;5032020;28;20065;-82
2023/09/19 11:48:13;;;;;;;3.72;0.93;;;;;;;23.90;100.00;99949.75;5016825;28;20021;-80
2023/09/19 11:50:57;;;;;;;0.77;0.65;;;;;;;23.66;100.00;99934.53;5016701;28;20022;-83